Route Details

Aircraft Information
Group: North America Fleet
Types: B738, B752, B762, B763
Route Data
Distance: 409nm
Duration: 1h 50m
Origin METAR: CYHM 171100Z 34005KT 15SM FEW060 FEW090 SCT110 BKN130 BKN250 16/14 A3010 RMK SC1AC1AC2AC2CI1 SLP195 DENSITY ALT 900FT
Dest. METAR: KRFD 171054Z 00000KT 10SM FEW250 13/11 A3015 RMK AO2 SLP207 T01330111
Freight Data
(for Aug 18, 2022)
Load Factor:
57%
Manifested Cargo: 31,752lbs
Financial History
Total Freight: 112,016lbs
Average Load: 0lbs/flt
Fuel Used: 19,899lbs
Avg. Fuel Used: 0lbs/flt
Fuel Expense: $11,472
Avg. Fuel Expense: $0
Avg. Fuel Cost: $0/lbs
Total Gross Income: $293,482
Pilot Pay: $348
Total Expenses: $57,711
Total Revenue: $223,582
Average Revenue: $0

Capitol Logistics 472




CYHM
John C. Munro Hamilton International Airport
Hamilton, CA
KRFD
Chicago/Rockford International Airport
Rockford, US

Activity Log

Date Flight Route Aircraft Duration
07/24/2022 CPX472 DERLO HOCKE B763 1h 39m
07/10/2022 CPX472 DERLO HOCKE B738 1h 18m